Tokyo International Airport
RJTT : now visible

Airfield :











YOU CAN JOIN US ON...

 
LOGIN :

Register | Disclaimer

   EN    FR    IT 

 









Legend :    VFR   Marginal VFR   IFR   Intensive IFR   Very Intensive IFR
Visi :
Ceiling :
>= 8 km
>= 3000ft
5 to 8 km
1000 to 3000 ft
1500m to 5 km
500 to 1000 ft
800 to 1500m
200 to 500 ft
< 800m
< 200 ft
Symbols :   Thunderstorms  Fog  Heavy snow  Heavy precipitations  Wind > 20 kt







- Airport Elevation : 35 ft
- IATA code : HND


RJTT - Tokyo International

CURRENT METAR :
  • 152030Z 03008KT 9999 FEW015 BKN160 04/M01 Q1010 NOSIG RMK 1CU015 7AC160 A2985

EXPIRED METARs :
  • 152000Z 03005KT 9999 FEW015 BKN180 04/M01 Q1010 NOSIG
  • 151930Z 03006KT 9999 FEW015 BKN/// 04/M00 Q1011 NOSIG RMK 1CU015 A2985
  • 151900Z 06004KT 9999 FEW015 BKN170 04/M00 Q1011 BECMG 04005KT
  • 151830Z 05006KT 9999 FEW015 BKN160 04/M00 Q1011 NOSIG RMK 1CU015 7AC160 A2987
  • 151800Z 05006KT 9999 FEW015 BKN160 04/M01 Q1011 NOSIG RMK 1CU015 7AC160 A2987

TAF TAF RJTT
Valid from the 15 at 18:00 until the 17 at 00:00 UTC


151705Z 1518/1700 36006KT 9999 FEW030
BECMG 1606/1609 34016KT
RJJJ FIR / Asia



MET'MAP, your aeronautical weather chart ! - Copyright ORBIFLY December 2007 - Disclaimer

ORBIFLY MET'MAP TEAM :

Programming & Development : Alexandra Zaïnal
Concept & Development : Baudouin d'Aumeries
Co-Development & Prog : Marc-Olivier Méhu
Technical & hardware support : Manuel Goepfert

Contact : metmap@orbifly.com




SOURCES & CREDITS :

   NOAA       Earth
Advisory